sensor_id;sensor_type;location;lat;lon;timestamp;temperature;humidity
52743;DHT22;55583;53.012;6.556;2023-04-29T00:00:24;9.60;99.90
52743;DHT22;55583;53.012;6.556;2023-04-29T00:02:50;9.60;99.90
52743;DHT22;55583;53.012;6.556;2023-04-29T00:05:16;9.60;99.90
52743;DHT22;55583;53.012;6.556;2023-04-29T00:07:42;9.60;99.90
52743;DHT22;55583;53.012;6.556;2023-04-29T00:10:08;9.60;99.90
52743;DHT22;55583;53.012;6.556;2023-04-29T00:12:34;9.60;99.90
52743;DHT22;55583;53.012;6.556;2023-04-29T00:14:59;9.60;99.90
52743;DHT22;55583;53.012;6.556;2023-04-29T00:17:27;9.60;99.90
52743;DHT22;55583;53.012;6.556;2023-04-29T00:19:53;9.60;99.90
52743;DHT22;55583;53.012;6.556;2023-04-29T00:22:19;9.60;99.90
52743;DHT22;55583;53.012;6.556;2023-04-29T00:24:47;9.80;99.90
52743;DHT22;55583;53.012;6.556;2023-04-29T00:27:12;9.60;99.90
52743;DHT22;55583;53.012;6.556;2023-04-29T00:29:38;9.60;99.90
52743;DHT22;55583;53.012;6.556;2023-04-29T00:32:04;9.60;99.90
52743;DHT22;55583;53.012;6.556;2023-04-29T00:34:29;9.50;99.90
52743;DHT22;55583;53.012;6.556;2023-04-29T00:36:55;9.50;99.90
52743;DHT22;55583;53.012;6.556;2023-04-29T00:39:21;9.50;99.90
52743;DHT22;55583;53.012;6.556;2023-04-29T00:41:46;9.60;99.90
52743;DHT22;55583;53.012;6.556;2023-04-29T00:44:12;9.50;99.90
52743;DHT22;55583;53.012;6.556;2023-04-29T00:46:37;9.50;99.90
52743;DHT22;55583;53.012;6.556;2023-04-29T00:49:03;9.50;99.90
52743;DHT22;55583;53.012;6.556;2023-04-29T00:51:29;9.50;99.90
52743;DHT22;55583;53.012;6.556;2023-04-29T00:53:55;9.50;99.90
52743;DHT22;55583;53.012;6.556;2023-04-29T00:56:21;9.50;99.90
52743;DHT22;55583;53.012;6.556;2023-04-29T00:58:47;9.50;99.90
52743;DHT22;55583;53.012;6.556;2023-04-29T01:01:18;9.50;99.90
52743;DHT22;55583;53.012;6.556;2023-04-29T01:03:44;9.50;99.90
52743;DHT22;55583;53.012;6.556;2023-04-29T01:06:29;9.50;99.90
52743;DHT22;55583;53.012;6.556;2023-04-29T01:11:59;9.50;99.90
52743;DHT22;55583;53.012;6.556;2023-04-29T01:14:29;9.50;99.90
52743;DHT22;55583;53.012;6.556;2023-04-29T01:16:59;9.50;99.90
52743;DHT22;55583;53.012;6.556;2023-04-29T01:19:38;9.60;99.90
52743;DHT22;55583;53.012;6.556;2023-04-29T01:22:05;9.50;99.90
52743;DHT22;55583;53.012;6.556;2023-04-29T01:24:31;9.50;99.90
52743;DHT22;55583;53.012;6.556;2023-04-29T01:27:04;9.60;99.90
52743;DHT22;55583;53.012;6.556;2023-04-29T01:29:58;9.50;99.90
52743;DHT22;55583;53.012;6.556;2023-04-29T01:32:38;9.50;99.90
52743;DHT22;55583;53.012;6.556;2023-04-29T01:35:30;9.50;99.90
52743;DHT22;55583;53.012;6.556;2023-04-29T01:43:31;9.40;99.90
52743;DHT22;55583;53.012;6.556;2023-04-29T01:45:58;9.70;99.90
52743;DHT22;55583;53.012;6.556;2023-04-29T01:48:25;9.50;99.90
52743;DHT22;55583;53.012;6.556;2023-04-29T01:50:51;9.40;99.90
52743;DHT22;55583;53.012;6.556;2023-04-29T01:53:16;9.30;99.90
52743;DHT22;55583;53.012;6.556;2023-04-29T01:55:42;9.30;99.90
52743;DHT22;55583;53.012;6.556;2023-04-29T01:58:11;9.30;99.90
52743;DHT22;55583;53.012;6.556;2023-04-29T02:00:36;9.30;99.90
52743;DHT22;55583;53.012;6.556;2023-04-29T02:03:03;9.30;99.90
52743;DHT22;55583;53.012;6.556;2023-04-29T02:05:29;9.30;99.90
52743;DHT22;55583;53.012;6.556;2023-04-29T02:07:58;9.20;99.90
52743;DHT22;55583;53.012;6.556;2023-04-29T02:10:25;9.20;99.90
52743;DHT22;55583;53.012;6.556;2023-04-29T02:12:51;9.20;99.90
52743;DHT22;55583;53.012;6.556;2023-04-29T02:15:17;9.20;99.90
52743;DHT22;55583;53.012;6.556;2023-04-29T02:17:44;9.20;99.90
52743;DHT22;55583;53.012;6.556;2023-04-29T02:20:10;9.40;99.90
52743;DHT22;55583;53.012;6.556;2023-04-29T02:22:36;9.20;99.90
52743;DHT22;55583;53.012;6.556;2023-04-29T02:25:01;9.20;99.90
52743;DHT22;55583;53.012;6.556;2023-04-29T02:27:27;9.20;99.90
52743;DHT22;55583;53.012;6.556;2023-04-29T02:29:52;9.20;99.90
52743;DHT22;55583;53.012;6.556;2023-04-29T02:32:18;9.20;99.90
52743;DHT22;55583;53.012;6.556;2023-04-29T02:34:45;9.20;99.90
52743;DHT22;55583;53.012;6.556;2023-04-29T02:37:11;9.20;99.90
52743;DHT22;55583;53.012;6.556;2023-04-29T02:39:37;9.10;99.90
52743;DHT22;55583;53.012;6.556;2023-04-29T02:42:02;9.10;99.90
52743;DHT22;55583;53.012;6.556;2023-04-29T02:44:28;9.10;99.90
52743;DHT22;55583;53.012;6.556;2023-04-29T02:46:55;9.10;99.90
52743;DHT22;55583;53.012;6.556;2023-04-29T02:49:20;9.10;99.90
52743;DHT22;55583;53.012;6.556;2023-04-29T02:51:46;9.10;99.90
52743;DHT22;55583;53.012;6.556;2023-04-29T02:54:15;9.10;99.90
52743;DHT22;55583;53.012;6.556;2023-04-29T02:56:41;9.10;99.90
52743;DHT22;55583;53.012;6.556;2023-04-29T02:59:07;9.10;99.90
52743;DHT22;55583;53.012;6.556;2023-04-29T03:01:32;9.00;99.90
52743;DHT22;55583;53.012;6.556;2023-04-29T03:03:58;9.00;99.90
52743;DHT22;55583;53.012;6.556;2023-04-29T03:06:24;9.00;99.90
52743;DHT22;55583;53.012;6.556;2023-04-29T03:08:50;8.90;99.90
52743;DHT22;55583;53.012;6.556;2023-04-29T03:11:17;8.90;99.90
52743;DHT22;55583;53.012;6.556;2023-04-29T03:13:42;8.90;99.90
52743;DHT22;55583;53.012;6.556;2023-04-29T03:16:10;8.80;99.90
52743;DHT22;55583;53.012;6.556;2023-04-29T03:18:38;8.80;99.90
52743;DHT22;55583;53.012;6.556;2023-04-29T03:21:03;8.80;99.90
52743;DHT22;55583;53.012;6.556;2023-04-29T03:23:29;8.70;99.90
52743;DHT22;55583;53.012;6.556;2023-04-29T03:25:55;8.70;99.90
52743;DHT22;55583;53.012;6.556;2023-04-29T03:28:21;8.70;99.90
52743;DHT22;55583;53.012;6.556;2023-04-29T03:30:46;8.70;99.90
52743;DHT22;55583;53.012;6.556;2023-04-29T03:33:12;8.70;99.90
52743;DHT22;55583;53.012;6.556;2023-04-29T03:35:38;8.70;99.90
52743;DHT22;55583;53.012;6.556;2023-04-29T03:38:04;8.60;99.90
52743;DHT22;55583;53.012;6.556;2023-04-29T03:40:30;8.60;99.90
52743;DHT22;55583;53.012;6.556;2023-04-29T03:42:55;8.60;99.90
52743;DHT22;55583;53.012;6.556;2023-04-29T03:45:21;8.60;99.90
52743;DHT22;55583;53.012;6.556;2023-04-29T03:47:46;8.60;99.90
52743;DHT22;55583;53.012;6.556;2023-04-29T03:50:12;8.60;99.90
52743;DHT22;55583;53.012;6.556;2023-04-29T03:52:38;8.70;99.90
52743;DHT22;55583;53.012;6.556;2023-04-29T03:55:04;8.60;99.90
52743;DHT22;55583;53.012;6.556;2023-04-29T03:57:30;8.60;99.90
52743;DHT22;55583;53.012;6.556;2023-04-29T03:59:55;8.60;99.90
52743;DHT22;55583;53.012;6.556;2023-04-29T04:02:21;8.60;99.90
52743;DHT22;55583;53.012;6.556;2023-04-29T04:04:46;8.60;99.90
52743;DHT22;55583;53.012;6.556;2023-04-29T04:07:12;8.60;99.90
52743;DHT22;55583;53.012;6.556;2023-04-29T04:09:38;8.60;99.90
52743;DHT22;55583;53.012;6.556;2023-04-29T04:12:03;8.60;99.90
52743;DHT22;55583;53.012;6.556;2023-04-29T04:14:29;8.60;99.90
52743;DHT22;55583;53.012;6.556;2023-04-29T04:16:56;8.60;99.90
52743;DHT22;55583;53.012;6.556;2023-04-29T04:19:21;8.80;99.90
52743;DHT22;55583;53.012;6.556;2023-04-29T04:21:47;8.60;99.90
52743;DHT22;55583;53.012;6.556;2023-04-29T04:24:12;8.60;99.90
52743;DHT22;55583;53.012;6.556;2023-04-29T04:26:38;8.60;99.90
52743;DHT22;55583;53.012;6.556;2023-04-29T04:29:05;8.70;99.90
52743;DHT22;55583;53.012;6.556;2023-04-29T04:31:31;8.60;99.90
52743;DHT22;55583;53.012;6.556;2023-04-29T04:33:57;8.70;99.90
52743;DHT22;55583;53.012;6.556;2023-04-29T04:36:24;8.70;99.90
52743;DHT22;55583;53.012;6.556;2023-04-29T04:38:50;8.70;99.90
52743;DHT22;55583;53.012;6.556;2023-04-29T04:41:16;8.70;99.90
52743;DHT22;55583;53.012;6.556;2023-04-29T04:43:42;8.70;99.90
52743;DHT22;55583;53.012;6.556;2023-04-29T04:46:11;8.70;99.90
52743;DHT22;55583;53.012;6.556;2023-04-29T04:48:37;8.70;99.90
52743;DHT22;55583;53.012;6.556;2023-04-29T04:51:10;8.70;99.90
52743;DHT22;55583;53.012;6.556;2023-04-29T04:53:36;8.70;99.90
52743;DHT22;55583;53.012;6.556;2023-04-29T04:56:03;8.70;99.90
52743;DHT22;55583;53.012;6.556;2023-04-29T04:58:29;8.80;99.90
52743;DHT22;55583;53.012;6.556;2023-04-29T05:01:01;8.80;99.90
52743;DHT22;55583;53.012;6.556;2023-04-29T05:03:26;8.80;99.90
52743;DHT22;55583;53.012;6.556;2023-04-29T05:05:56;8.80;99.90
52743;DHT22;55583;53.012;6.556;2023-04-29T05:08:22;8.80;99.90
52743;DHT22;55583;53.012;6.556;2023-04-29T05:10:49;8.80;99.90
52743;DHT22;55583;53.012;6.556;2023-04-29T05:13:16;8.90;99.90
52743;DHT22;55583;53.012;6.556;2023-04-29T05:15:41;8.90;99.90
52743;DHT22;55583;53.012;6.556;2023-04-29T05:18:07;9.20;99.90
52743;DHT22;55583;53.012;6.556;2023-04-29T05:20:33;8.90;99.90
52743;DHT22;55583;53.012;6.556;2023-04-29T05:22:58;8.90;99.90
52743;DHT22;55583;53.012;6.556;2023-04-29T05:25:24;9.00;99.90
52743;DHT22;55583;53.012;6.556;2023-04-29T05:27:50;9.20;99.90
52743;DHT22;55583;53.012;6.556;2023-04-29T05:30:16;9.00;99.90
52743;DHT22;55583;53.012;6.556;2023-04-29T05:32:43;9.10;99.90
52743;DHT22;55583;53.012;6.556;2023-04-29T05:35:13;9.10;99.90
52743;DHT22;55583;53.012;6.556;2023-04-29T05:37:40;9.10;99.90
52743;DHT22;55583;53.012;6.556;2023-04-29T05:40:06;9.10;99.90
52743;DHT22;55583;53.012;6.556;2023-04-29T05:42:32;9.20;99.90
52743;DHT22;55583;53.012;6.556;2023-04-29T05:44:57;9.10;99.90
52743;DHT22;55583;53.012;6.556;2023-04-29T05:47:23;9.20;99.90
52743;DHT22;55583;53.012;6.556;2023-04-29T05:49:49;9.70;99.90
52743;DHT22;55583;53.012;6.556;2023-04-29T05:52:17;9.20;99.90
52743;DHT22;55583;53.012;6.556;2023-04-29T05:54:43;9.20;99.90
52743;DHT22;55583;53.012;6.556;2023-04-29T05:57:08;9.30;99.90
52743;DHT22;55583;53.012;6.556;2023-04-29T05:59:34;9.30;99.90
52743;DHT22;55583;53.012;6.556;2023-04-29T06:02:00;9.30;99.90
52743;DHT22;55583;53.012;6.556;2023-04-29T06:04:26;9.40;99.90
52743;DHT22;55583;53.012;6.556;2023-04-29T06:06:55;9.40;99.90
52743;DHT22;55583;53.012;6.556;2023-04-29T06:09:22;9.50;99.90
52743;DHT22;55583;53.012;6.556;2023-04-29T06:11:51;9.50;99.90
52743;DHT22;55583;53.012;6.556;2023-04-29T06:14:16;9.60;99.90
52743;DHT22;55583;53.012;6.556;2023-04-29T06:16:42;9.70;99.90
52743;DHT22;55583;53.012;6.556;2023-04-29T06:19:08;9.80;99.90
52743;DHT22;55583;53.012;6.556;2023-04-29T06:21:34;9.90;99.90
52743;DHT22;55583;53.012;6.556;2023-04-29T06:23:59;10.00;99.90
52743;DHT22;55583;53.012;6.556;2023-04-29T06:26:25;10.20;99.90
52743;DHT22;55583;53.012;6.556;2023-04-29T06:28:51;10.20;99.90
52743;DHT22;55583;53.012;6.556;2023-04-29T06:31:17;10.20;99.90
52743;DHT22;55583;53.012;6.556;2023-04-29T06:33:42;10.30;99.90
52743;DHT22;55583;53.012;6.556;2023-04-29T06:36:08;10.70;99.90
52743;DHT22;55583;53.012;6.556;2023-04-29T06:38:34;10.50;99.90
52743;DHT22;55583;53.012;6.556;2023-04-29T06:40:59;10.60;99.90
52743;DHT22;55583;53.012;6.556;2023-04-29T06:43:26;10.70;99.90
52743;DHT22;55583;53.012;6.556;2023-04-29T06:45:52;10.90;99.90
52743;DHT22;55583;53.012;6.556;2023-04-29T06:48:18;10.90;99.90
52743;DHT22;55583;53.012;6.556;2023-04-29T06:50:54;11.10;99.90
52743;DHT22;55583;53.012;6.556;2023-04-29T06:53:20;11.30;99.90
52743;DHT22;55583;53.012;6.556;2023-04-29T06:55:46;11.60;99.90
52743;DHT22;55583;53.012;6.556;2023-04-29T06:58:13;12.20;99.90
52743;DHT22;55583;53.012;6.556;2023-04-29T07:00:39;11.90;99.90
52743;DHT22;55583;53.012;6.556;2023-04-29T07:03:04;11.80;99.90
52743;DHT22;55583;53.012;6.556;2023-04-29T07:05:30;12.40;99.90
52743;DHT22;55583;53.012;6.556;2023-04-29T07:07:55;13.10;99.90
52743;DHT22;55583;53.012;6.556;2023-04-29T07:10:22;13.70;99.90
52743;DHT22;55583;53.012;6.556;2023-04-29T07:12:47;14.30;99.90
52743;DHT22;55583;53.012;6.556;2023-04-29T07:15:13;14.70;99.90
52743;DHT22;55583;53.012;6.556;2023-04-29T07:17:38;14.60;99.90
52743;DHT22;55583;53.012;6.556;2023-04-29T07:20:04;14.30;99.90
52743;DHT22;55583;53.012;6.556;2023-04-29T07:22:31;13.80;99.90
52743;DHT22;55583;53.012;6.556;2023-04-29T07:24:56;13.50;99.90
52743;DHT22;55583;53.012;6.556;2023-04-29T07:27:22;13.10;99.90
52743;DHT22;55583;53.012;6.556;2023-04-29T07:29:48;13.20;99.90
52743;DHT22;55583;53.012;6.556;2023-04-29T07:32:15;13.10;99.90
52743;DHT22;55583;53.012;6.556;2023-04-29T07:34:41;13.20;99.90
52743;DHT22;55583;53.012;6.556;2023-04-29T07:37:06;13.60;99.60
52743;DHT22;55583;53.012;6.556;2023-04-29T07:39:32;13.60;97.10
52743;DHT22;55583;53.012;6.556;2023-04-29T07:41:59;13.50;96.50
52743;DHT22;55583;53.012;6.556;2023-04-29T07:44:25;13.50;96.40
52743;DHT22;55583;53.012;6.556;2023-04-29T07:46:51;13.50;96.10
52743;DHT22;55583;53.012;6.556;2023-04-29T07:49:16;13.40;96.00
52743;DHT22;55583;53.012;6.556;2023-04-29T07:51:42;13.30;96.70
52743;DHT22;55583;53.012;6.556;2023-04-29T07:54:08;13.30;97.90
52743;DHT22;55583;53.012;6.556;2023-04-29T07:56:34;13.40;97.70
52743;DHT22;55583;53.012;6.556;2023-04-29T07:59:00;13.60;97.10
52743;DHT22;55583;53.012;6.556;2023-04-29T08:01:26;13.80;96.40
52743;DHT22;55583;53.012;6.556;2023-04-29T08:03:53;14.00;94.00
52743;DHT22;55583;53.012;6.556;2023-04-29T08:06:18;14.10;92.70
52743;DHT22;55583;53.012;6.556;2023-04-29T08:08:47;14.10;91.70
52743;DHT22;55583;53.012;6.556;2023-04-29T08:11:19;14.10;91.70
52743;DHT22;55583;53.012;6.556;2023-04-29T08:13:46;13.90;90.90
52743;DHT22;55583;53.012;6.556;2023-04-29T08:16:12;13.90;92.10
52743;DHT22;55583;53.012;6.556;2023-04-29T08:18:38;14.10;92.00
52743;DHT22;55583;53.012;6.556;2023-04-29T08:21:04;14.50;91.40
52743;DHT22;55583;53.012;6.556;2023-04-29T08:23:29;14.60;90.80
52743;DHT22;55583;53.012;6.556;2023-04-29T08:25:55;14.80;90.90
52743;DHT22;55583;53.012;6.556;2023-04-29T08:28:21;15.00;90.90
52743;DHT22;55583;53.012;6.556;2023-04-29T08:30:47;14.90;90.40
52743;DHT22;55583;53.012;6.556;2023-04-29T08:33:13;14.90;90.50
52743;DHT22;55583;53.012;6.556;2023-04-29T08:35:39;14.80;90.20
52743;DHT22;55583;53.012;6.556;2023-04-29T08:38:05;14.80;89.70
52743;DHT22;55583;53.012;6.556;2023-04-29T08:40:41;14.70;89.40
52743;DHT22;55583;53.012;6.556;2023-04-29T08:43:07;14.50;89.00
52743;DHT22;55583;53.012;6.556;2023-04-29T08:45:35;14.40;89.70
52743;DHT22;55583;53.012;6.556;2023-04-29T08:48:07;14.30;89.90
52743;DHT22;55583;53.012;6.556;2023-04-29T08:50:38;14.30;89.20
52743;DHT22;55583;53.012;6.556;2023-04-29T08:53:08;14.60;89.40
52743;DHT22;55583;53.012;6.556;2023-04-29T08:55:35;14.70;88.40
52743;DHT22;55583;53.012;6.556;2023-04-29T08:58:04;14.70;87.50
52743;DHT22;55583;53.012;6.556;2023-04-29T09:00:31;14.90;87.20
52743;DHT22;55583;53.012;6.556;2023-04-29T09:02:57;15.20;86.80
52743;DHT22;55583;53.012;6.556;2023-04-29T09:05:25;16.00;85.40
52743;DHT22;55583;53.012;6.556;2023-04-29T09:07:51;17.20;82.50
52743;DHT22;55583;53.012;6.556;2023-04-29T09:10:18;18.20;76.60
52743;DHT22;55583;53.012;6.556;2023-04-29T09:12:44;19.20;73.60
52743;DHT22;55583;53.012;6.556;2023-04-29T09:15:10;19.30;71.70
52743;DHT22;55583;53.012;6.556;2023-04-29T09:17:47;18.90;71.10
52743;DHT22;55583;53.012;6.556;2023-04-29T09:22:48;18.50;71.20
52743;DHT22;55583;53.012;6.556;2023-04-29T09:25:14;19.40;70.40
52743;DHT22;55583;53.012;6.556;2023-04-29T09:27:40;21.00;68.30
52743;DHT22;55583;53.012;6.556;2023-04-29T09:30:06;22.80;63.80
52743;DHT22;55583;53.012;6.556;2023-04-29T09:32:32;24.10;60.40
52743;DHT22;55583;53.012;6.556;2023-04-29T09:34:58;24.10;59.40
52743;DHT22;55583;53.012;6.556;2023-04-29T09:37:44;24.60;57.90
52743;DHT22;55583;53.012;6.556;2023-04-29T09:40:27;25.40;56.00
52743;DHT22;55583;53.012;6.556;2023-04-29T09:42:55;25.90;53.40
52743;DHT22;55583;53.012;6.556;2023-04-29T09:45:43;26.10;53.30
52743;DHT22;55583;53.012;6.556;2023-04-29T09:48:10;26.80;49.50
52743;DHT22;55583;53.012;6.556;2023-04-29T09:50:37;27.50;52.20
52743;DHT22;55583;53.012;6.556;2023-04-29T09:53:04;28.30;51.50
52743;DHT22;55583;53.012;6.556;2023-04-29T09:55:34;28.30;49.70
52743;DHT22;55583;53.012;6.556;2023-04-29T09:58:00;27.70;50.00
52743;DHT22;55583;53.012;6.556;2023-04-29T10:00:29;27.30;49.80
52743;DHT22;55583;53.012;6.556;2023-04-29T10:02:58;27.70;49.50
52743;DHT22;55583;53.012;6.556;2023-04-29T10:05:27;28.50;48.10
52743;DHT22;55583;53.012;6.556;2023-04-29T10:07:54;28.90;46.50
52743;DHT22;55583;53.012;6.556;2023-04-29T10:10:22;29.40;46.90
52743;DHT22;55583;53.012;6.556;2023-04-29T10:12:52;30.00;46.20
52743;DHT22;55583;53.012;6.556;2023-04-29T10:15:28;30.70;45.60
52743;DHT22;55583;53.012;6.556;2023-04-29T10:18:17;31.30;42.40
52743;DHT22;55583;53.012;6.556;2023-04-29T10:20:46;31.40;42.70
52743;DHT22;55583;53.012;6.556;2023-04-29T10:23:15;31.30;43.40
52743;DHT22;55583;53.012;6.556;2023-04-29T10:25:43;31.20;42.40
52743;DHT22;55583;53.012;6.556;2023-04-29T10:28:13;30.60;42.90
52743;DHT22;55583;53.012;6.556;2023-04-29T10:30:50;30.30;41.50
52743;DHT22;55583;53.012;6.556;2023-04-29T10:33:16;30.40;42.10
52743;DHT22;55583;53.012;6.556;2023-04-29T10:35:43;30.40;42.70
52743;DHT22;55583;53.012;6.556;2023-04-29T10:38:21;30.30;42.60
52743;DHT22;55583;53.012;6.556;2023-04-29T10:40:50;30.20;41.80
52743;DHT22;55583;53.012;6.556;2023-04-29T10:43:24;30.10;42.00
52743;DHT22;55583;53.012;6.556;2023-04-29T10:46:15;30.40;42.50
52743;DHT22;55583;53.012;6.556;2023-04-29T10:48:45;30.60;40.80
52743;DHT22;55583;53.012;6.556;2023-04-29T10:51:11;30.80;41.50
52743;DHT22;55583;53.012;6.556;2023-04-29T10:54:00;31.00;41.00
52743;DHT22;55583;53.012;6.556;2023-04-29T10:56:43;31.10;39.90
52743;DHT22;55583;53.012;6.556;2023-04-29T10:59:13;31.40;38.10
52743;DHT22;55583;53.012;6.556;2023-04-29T11:01:46;31.50;40.30
52743;DHT22;55583;53.012;6.556;2023-04-29T11:04:12;31.50;39.90
52743;DHT22;55583;53.012;6.556;2023-04-29T11:06:56;31.70;39.90
52743;DHT22;55583;53.012;6.556;2023-04-29T11:09:30;31.80;39.60
52743;DHT22;55583;53.012;6.556;2023-04-29T11:12:02;32.00;40.60
52743;DHT22;55583;53.012;6.556;2023-04-29T11:14:41;32.10;38.80
52743;DHT22;55583;53.012;6.556;2023-04-29T11:17:09;32.00;37.90
52743;DHT22;55583;53.012;6.556;2023-04-29T11:19:40;31.60;38.90
52743;DHT22;55583;53.012;6.556;2023-04-29T11:22:22;31.50;38.50
52743;DHT22;55583;53.012;6.556;2023-04-29T11:24:56;31.60;40.10
52743;DHT22;55583;53.012;6.556;2023-04-29T11:27:30;32.10;40.50
52743;DHT22;55583;53.012;6.556;2023-04-29T11:29:56;32.50;39.30
52743;DHT22;55583;53.012;6.556;2023-04-29T11:32:24;32.40;39.90
52743;DHT22;55583;53.012;6.556;2023-04-29T11:34:51;32.30;39.30
52743;DHT22;55583;53.012;6.556;2023-04-29T11:37:24;32.40;39.10
52743;DHT22;55583;53.012;6.556;2023-04-29T11:39:50;32.00;38.30
52743;DHT22;55583;53.012;6.556;2023-04-29T11:42:20;31.50;38.20
52743;DHT22;55583;53.012;6.556;2023-04-29T11:44:46;31.40;39.50
52743;DHT22;55583;53.012;6.556;2023-04-29T11:47:12;31.30;38.80
52743;DHT22;55583;53.012;6.556;2023-04-29T11:49:38;31.40;38.70
52743;DHT22;55583;53.012;6.556;2023-04-29T11:52:04;31.70;39.50
52743;DHT22;55583;53.012;6.556;2023-04-29T11:54:29;32.00;39.00
52743;DHT22;55583;53.012;6.556;2023-04-29T11:56:56;31.80;38.70
52743;DHT22;55583;53.012;6.556;2023-04-29T11:59:22;31.70;39.40
52743;DHT22;55583;53.012;6.556;2023-04-29T12:01:51;31.60;37.90
52743;DHT22;55583;53.012;6.556;2023-04-29T12:04:17;31.70;38.20
52743;DHT22;55583;53.012;6.556;2023-04-29T12:06:44;31.50;38.20
52743;DHT22;55583;53.012;6.556;2023-04-29T12:09:10;30.90;38.70
52743;DHT22;55583;53.012;6.556;2023-04-29T12:11:36;30.80;40.40
52743;DHT22;55583;53.012;6.556;2023-04-29T12:14:02;30.60;39.10
52743;DHT22;55583;53.012;6.556;2023-04-29T12:16:31;30.60;38.90
52743;DHT22;55583;53.012;6.556;2023-04-29T12:18:58;30.80;38.50
52743;DHT22;55583;53.012;6.556;2023-04-29T12:21:24;30.70;38.70
52743;DHT22;55583;53.012;6.556;2023-04-29T12:23:52;30.60;38.80
52743;DHT22;55583;53.012;6.556;2023-04-29T12:26:18;30.60;38.90
52743;DHT22;55583;53.012;6.556;2023-04-29T12:28:45;30.60;38.90
52743;DHT22;55583;53.012;6.556;2023-04-29T12:31:14;30.30;38.70
52743;DHT22;55583;53.012;6.556;2023-04-29T12:33:42;30.20;39.20
52743;DHT22;55583;53.012;6.556;2023-04-29T12:36:15;29.80;39.30
52743;DHT22;55583;53.012;6.556;2023-04-29T12:38:45;29.90;40.30
52743;DHT22;55583;53.012;6.556;2023-04-29T12:41:11;30.10;40.10
52743;DHT22;55583;53.012;6.556;2023-04-29T12:43:42;30.20;40.40
52743;DHT22;55583;53.012;6.556;2023-04-29T12:46:09;30.10;40.10
52743;DHT22;55583;53.012;6.556;2023-04-29T12:48:37;30.20;40.00
52743;DHT22;55583;53.012;6.556;2023-04-29T12:51:03;30.10;39.90
52743;DHT22;55583;53.012;6.556;2023-04-29T12:53:30;29.50;39.70
52743;DHT22;55583;53.012;6.556;2023-04-29T12:55:56;29.10;39.60
52743;DHT22;55583;53.012;6.556;2023-04-29T12:58:22;28.60;40.10
52743;DHT22;55583;53.012;6.556;2023-04-29T13:00:48;28.40;39.80
52743;DHT22;55583;53.012;6.556;2023-04-29T13:03:13;28.30;40.90
52743;DHT22;55583;53.012;6.556;2023-04-29T13:05:40;28.40;41.20
52743;DHT22;55583;53.012;6.556;2023-04-29T13:08:06;28.20;40.80
52743;DHT22;55583;53.012;6.556;2023-04-29T13:10:33;28.10;41.40
52743;DHT22;55583;53.012;6.556;2023-04-29T13:12:59;28.20;41.90
52743;DHT22;55583;53.012;6.556;2023-04-29T13:15:25;28.20;40.90
52743;DHT22;55583;53.012;6.556;2023-04-29T13:17:52;28.20;40.60
52743;DHT22;55583;53.012;6.556;2023-04-29T13:20:17;28.30;40.80
52743;DHT22;55583;53.012;6.556;2023-04-29T13:22:43;28.20;40.10
52743;DHT22;55583;53.012;6.556;2023-04-29T13:25:10;27.90;39.70
52743;DHT22;55583;53.012;6.556;2023-04-29T13:27:40;27.70;40.10
52743;DHT22;55583;53.012;6.556;2023-04-29T13:30:06;27.50;41.00
52743;DHT22;55583;53.012;6.556;2023-04-29T13:32:33;27.30;41.10
52743;DHT22;55583;53.012;6.556;2023-04-29T13:34:58;27.10;42.20
52743;DHT22;55583;53.012;6.556;2023-04-29T13:37:24;26.90;43.40
52743;DHT22;55583;53.012;6.556;2023-04-29T13:39:50;27.00;42.30
52743;DHT22;55583;53.012;6.556;2023-04-29T13:42:15;27.20;42.20
52743;DHT22;55583;53.012;6.556;2023-04-29T13:44:41;27.30;42.60
52743;DHT22;55583;53.012;6.556;2023-04-29T13:47:12;27.30;42.80
52743;DHT22;55583;53.012;6.556;2023-04-29T13:49:39;27.30;42.90
52743;DHT22;55583;53.012;6.556;2023-04-29T13:52:05;27.20;42.60
52743;DHT22;55583;53.012;6.556;2023-04-29T13:54:32;27.30;43.00
52743;DHT22;55583;53.012;6.556;2023-04-29T13:56:57;27.40;43.00
52743;DHT22;55583;53.012;6.556;2023-04-29T13:59:23;27.30;43.00
52743;DHT22;55583;53.012;6.556;2023-04-29T14:01:49;27.00;43.60
52743;DHT22;55583;53.012;6.556;2023-04-29T14:04:15;27.00;43.10
52743;DHT22;55583;53.012;6.556;2023-04-29T14:06:44;26.90;43.30
52743;DHT22;55583;53.012;6.556;2023-04-29T14:09:10;26.80;42.60
52743;DHT22;55583;53.012;6.556;2023-04-29T14:11:36;26.70;42.50
52743;DHT22;55583;53.012;6.556;2023-04-29T14:14:02;26.40;42.40
52743;DHT22;55583;53.012;6.556;2023-04-29T14:16:28;26.00;42.80
52743;DHT22;55583;53.012;6.556;2023-04-29T14:18:54;25.70;43.50
52743;DHT22;55583;53.012;6.556;2023-04-29T14:21:20;25.70;44.10
52743;DHT22;55583;53.012;6.556;2023-04-29T14:23:47;25.50;44.90
52743;DHT22;55583;53.012;6.556;2023-04-29T14:26:13;25.70;45.60
52743;DHT22;55583;53.012;6.556;2023-04-29T14:28:39;25.70;46.20
52743;DHT22;55583;53.012;6.556;2023-04-29T14:31:05;25.50;46.40
52743;DHT22;55583;53.012;6.556;2023-04-29T14:33:30;25.20;46.80
52743;DHT22;55583;53.012;6.556;2023-04-29T14:35:56;25.00;47.30
52743;DHT22;55583;53.012;6.556;2023-04-29T14:38:22;25.20;47.80
52743;DHT22;55583;53.012;6.556;2023-04-29T14:40:47;25.20;47.40
52743;DHT22;55583;53.012;6.556;2023-04-29T14:43:13;25.30;46.60
52743;DHT22;55583;53.012;6.556;2023-04-29T14:45:39;25.20;47.00
52743;DHT22;55583;53.012;6.556;2023-04-29T14:48:05;25.10;46.90
52743;DHT22;55583;53.012;6.556;2023-04-29T14:50:32;25.00;46.90
52743;DHT22;55583;53.012;6.556;2023-04-29T14:52:57;25.00;47.40
52743;DHT22;55583;53.012;6.556;2023-04-29T14:55:24;24.90;47.60
52743;DHT22;55583;53.012;6.556;2023-04-29T14:57:50;24.90;47.50
52743;DHT22;55583;53.012;6.556;2023-04-29T15:00:15;24.70;47.30
52743;DHT22;55583;53.012;6.556;2023-04-29T15:02:41;24.40;48.20
52743;DHT22;55583;53.012;6.556;2023-04-29T15:05:07;24.30;48.40
52743;DHT22;55583;53.012;6.556;2023-04-29T15:07:32;24.10;48.60
52743;DHT22;55583;53.012;6.556;2023-04-29T15:09:58;23.60;49.00
52743;DHT22;55583;53.012;6.556;2023-04-29T15:12:24;23.30;50.00
52743;DHT22;55583;53.012;6.556;2023-04-29T15:14:49;23.20;50.70
52743;DHT22;55583;53.012;6.556;2023-04-29T15:17:17;22.90;50.50
52743;DHT22;55583;53.012;6.556;2023-04-29T15:19:43;22.50;51.40
52743;DHT22;55583;53.012;6.556;2023-04-29T15:22:08;21.90;51.90
52743;DHT22;55583;53.012;6.556;2023-04-29T15:24:35;21.30;53.00
52743;DHT22;55583;53.012;6.556;2023-04-29T15:27:01;20.90;53.70
52743;DHT22;55583;53.012;6.556;2023-04-29T15:29:27;20.50;54.30
52743;DHT22;55583;53.012;6.556;2023-04-29T15:31:52;20.20;54.80
52743;DHT22;55583;53.012;6.556;2023-04-29T15:34:18;20.10;55.40
52743;DHT22;55583;53.012;6.556;2023-04-29T15:36:44;20.10;55.50
52743;DHT22;55583;53.012;6.556;2023-04-29T15:39:09;19.80;56.00
52743;DHT22;55583;53.012;6.556;2023-04-29T15:41:36;20.00;56.30
52743;DHT22;55583;53.012;6.556;2023-04-29T15:44:01;20.30;56.10
52743;DHT22;55583;53.012;6.556;2023-04-29T15:46:29;20.10;56.00
52743;DHT22;55583;53.012;6.556;2023-04-29T15:48:55;19.80;56.50